sensor_id;sensor_type;location;lat;lon;timestamp;P1;P4;P2;P0;N10;N4;N25;N1;N05;TS
43196;SPS30;28816;49.852;18.282;2023-12-04T00:00:43;19.120000;;18.680000;17.350000;;;;;;
43196;SPS30;28816;49.852;18.282;2023-12-04T00:05:45;17.820000;;17.480000;16.620000;;;;;;
43196;SPS30;28816;49.852;18.282;2023-12-04T00:10:47;17.710000;;17.470000;16.320000;;;;;;
43196;SPS30;28816;49.852;18.282;2023-12-04T00:15:49;19.240000;;19.060000;17.590000;;;;;;
43196;SPS30;28816;49.852;18.282;2023-12-04T00:20:52;16.240000;;16.000000;14.810000;;;;;;
43196;SPS30;28816;49.852;18.282;2023-12-04T00:25:54;17.520000;;17.070000;15.960000;;;;;;
43196;SPS30;28816;49.852;18.282;2023-12-04T00:30:56;17.910000;;17.740000;16.690000;;;;;;
43196;SPS30;28816;49.852;18.282;2023-12-04T00:35:58;18.490000;;18.220000;17.010000;;;;;;
43196;SPS30;28816;49.852;18.282;2023-12-04T00:41:01;17.210000;;17.060000;16.190000;;;;;;
43196;SPS30;28816;49.852;18.282;2023-12-04T00:46:03;16.720000;;16.700000;15.440000;;;;;;
43196;SPS30;28816;49.852;18.282;2023-12-04T00:51:05;17.430000;;17.190000;16.080000;;;;;;
43196;SPS30;28816;49.852;18.282;2023-12-04T00:56:07;16.750000;;16.650000;15.640000;;;;;;
43196;SPS30;28816;49.852;18.282;2023-12-04T01:01:09;16.810000;;16.520000;15.630000;;;;;;
43196;SPS30;28816;49.852;18.282;2023-12-04T01:06:12;18.200000;;17.890000;16.870000;;;;;;
43196;SPS30;28816;49.852;18.282;2023-12-04T01:11:20;17.780000;;17.430000;16.440000;;;;;;
43196;SPS30;28816;49.852;18.282;2023-12-04T01:16:23;18.290000;;18.170000;16.890000;;;;;;
43196;SPS30;28816;49.852;18.282;2023-12-04T01:21:25;17.150000;;16.900000;15.800000;;;;;;
43196;SPS30;28816;49.852;18.282;2023-12-04T01:26:27;19.340000;;18.930000;17.490000;;;;;;
43196;SPS30;28816;49.852;18.282;2023-12-04T01:31:29;17.770000;;17.600000;16.450000;;;;;;
43196;SPS30;28816;49.852;18.282;2023-12-04T01:36:31;18.110000;;17.980000;16.710000;;;;;;
43196;SPS30;28816;49.852;18.282;2023-12-04T01:41:33;18.110000;;17.950000;16.780000;;;;;;
43196;SPS30;28816;49.852;18.282;2023-12-04T01:46:35;19.820000;;19.510000;18.070000;;;;;;
43196;SPS30;28816;49.852;18.282;2023-12-04T01:51:37;18.520000;;18.200000;17.100000;;;;;;
43196;SPS30;28816;49.852;18.282;2023-12-04T01:56:40;18.880000;;18.540000;16.950000;;;;;;
43196;SPS30;28816;49.852;18.282;2023-12-04T02:01:42;19.390000;;18.980000;17.810000;;;;;;
43196;SPS30;28816;49.852;18.282;2023-12-04T02:06:45;20.770000;;20.360000;18.990000;;;;;;
43196;SPS30;28816;49.852;18.282;2023-12-04T02:11:47;20.680000;;20.420000;18.960000;;;;;;
43196;SPS30;28816;49.852;18.282;2023-12-04T02:16:48;19.670000;;19.430000;18.250000;;;;;;
43196;SPS30;28816;49.852;18.282;2023-12-04T02:21:51;19.700000;;19.370000;17.880000;;;;;;
43196;SPS30;28816;49.852;18.282;2023-12-04T02:26:53;18.890000;;18.630000;17.420000;;;;;;
43196;SPS30;28816;49.852;18.282;2023-12-04T02:31:59;18.380000;;18.190000;16.970000;;;;;;
43196;SPS30;28816;49.852;18.282;2023-12-04T02:37:02;19.810000;;19.660000;18.340000;;;;;;
43196;SPS30;28816;49.852;18.282;2023-12-04T02:42:04;19.030000;;18.800000;17.350000;;;;;;
43196;SPS30;28816;49.852;18.282;2023-12-04T02:47:06;19.160000;;18.630000;17.340000;;;;;;
43196;SPS30;28816;49.852;18.282;2023-12-04T02:52:08;18.220000;;18.040000;16.780000;;;;;;
43196;SPS30;28816;49.852;18.282;2023-12-04T02:57:10;21.040000;;20.460000;18.930000;;;;;;
43196;SPS30;28816;49.852;18.282;2023-12-04T03:02:12;18.350000;;18.090000;16.970000;;;;;;
43196;SPS30;28816;49.852;18.282;2023-12-04T03:07:15;18.610000;;18.360000;16.770000;;;;;;
43196;SPS30;28816;49.852;18.282;2023-12-04T03:12:17;19.610000;;19.390000;18.130000;;;;;;
43196;SPS30;28816;49.852;18.282;2023-12-04T03:17:19;17.660000;;17.550000;16.420000;;;;;;
43196;SPS30;28816;49.852;18.282;2023-12-04T03:22:21;17.670000;;17.500000;16.460000;;;;;;
43196;SPS30;28816;49.852;18.282;2023-12-04T03:27:24;17.180000;;17.120000;15.670000;;;;;;
43196;SPS30;28816;49.852;18.282;2023-12-04T03:32:26;17.680000;;17.500000;16.260000;;;;;;
43196;SPS30;28816;49.852;18.282;2023-12-04T03:37:28;17.910000;;17.500000;16.470000;;;;;;
43196;SPS30;28816;49.852;18.282;2023-12-04T03:42:30;18.840000;;18.510000;17.140000;;;;;;
43196;SPS30;28816;49.852;18.282;2023-12-04T03:47:32;16.860000;;16.520000;15.600000;;;;;;
43196;SPS30;28816;49.852;18.282;2023-12-04T03:52:35;16.960000;;16.700000;15.660000;;;;;;
43196;SPS30;28816;49.852;18.282;2023-12-04T03:57:37;18.140000;;17.840000;16.440000;;;;;;
43196;SPS30;28816;49.852;18.282;2023-12-04T04:02:39;16.790000;;16.580000;15.390000;;;;;;
43196;SPS30;28816;49.852;18.282;2023-12-04T04:07:42;18.940000;;18.530000;17.160000;;;;;;
43196;SPS30;28816;49.852;18.282;2023-12-04T04:12:44;17.530000;;17.420000;16.350000;;;;;;
43196;SPS30;28816;49.852;18.282;2023-12-04T04:17:47;18.280000;;17.990000;16.600000;;;;;;
43196;SPS30;28816;49.852;18.282;2023-12-04T04:22:49;18.270000;;18.070000;16.830000;;;;;;
43196;SPS30;28816;49.852;18.282;2023-12-04T04:27:51;17.160000;;17.090000;15.710000;;;;;;
43196;SPS30;28816;49.852;18.282;2023-12-04T04:32:53;17.560000;;17.320000;15.870000;;;;;;
43196;SPS30;28816;49.852;18.282;2023-12-04T04:37:55;18.110000;;17.820000;16.250000;;;;;;
43196;SPS30;28816;49.852;18.282;2023-12-04T04:42:57;18.040000;;17.820000;16.740000;;;;;;
43196;SPS30;28816;49.852;18.282;2023-12-04T04:48:00;17.840000;;17.540000;16.160000;;;;;;
43196;SPS30;28816;49.852;18.282;2023-12-04T04:53:02;17.870000;;17.620000;16.520000;;;;;;
43196;SPS30;28816;49.852;18.282;2023-12-04T04:58:04;20.870000;;20.370000;18.720000;;;;;;
43196;SPS30;28816;49.852;18.282;2023-12-04T05:03:06;24.170000;;23.450000;21.680000;;;;;;
43196;SPS30;28816;49.852;18.282;2023-12-04T05:08:08;24.160000;;23.810000;22.310000;;;;;;
43196;SPS30;28816;49.852;18.282;2023-12-04T05:13:10;26.190000;;25.700000;23.980000;;;;;;
43196;SPS30;28816;49.852;18.282;2023-12-04T05:18:13;26.000000;;25.540000;23.640000;;;;;;
43196;SPS30;28816;49.852;18.282;2023-12-04T05:23:15;25.600000;;24.930000;23.070000;;;;;;
43196;SPS30;28816;49.852;18.282;2023-12-04T05:28:17;26.900000;;26.320000;23.980000;;;;;;
43196;SPS30;28816;49.852;18.282;2023-12-04T05:33:19;24.240000;;23.940000;22.270000;;;;;;
43196;SPS30;28816;49.852;18.282;2023-12-04T05:38:22;26.280000;;25.660000;24.010000;;;;;;
43196;SPS30;28816;49.852;18.282;2023-12-04T05:43:24;26.450000;;25.920000;24.410000;;;;;;
43196;SPS30;28816;49.852;18.282;2023-12-04T05:48:26;26.700000;;26.690000;24.740000;;;;;;
43196;SPS30;28816;49.852;18.282;2023-12-04T05:53:29;27.680000;;27.210000;25.230000;;;;;;
43196;SPS30;28816;49.852;18.282;2023-12-04T05:58:31;27.250000;;26.880000;25.120000;;;;;;
43196;SPS30;28816;49.852;18.282;2023-12-04T06:03:33;27.910000;;27.490000;25.990000;;;;;;
43196;SPS30;28816;49.852;18.282;2023-12-04T06:08:35;29.870000;;29.490000;27.500000;;;;;;
43196;SPS30;28816;49.852;18.282;2023-12-04T06:13:37;26.170000;;25.850000;24.450000;;;;;;
43196;SPS30;28816;49.852;18.282;2023-12-04T06:18:40;27.070000;;26.710000;24.770000;;;;;;
43196;SPS30;28816;49.852;18.282;2023-12-04T06:23:42;26.870000;;26.420000;24.430000;;;;;;
43196;SPS30;28816;49.852;18.282;2023-12-04T06:28:44;28.600000;;28.070000;26.190000;;;;;;
43196;SPS30;28816;49.852;18.282;2023-12-04T06:33:46;27.400000;;27.230000;25.570000;;;;;;
43196;SPS30;28816;49.852;18.282;2023-12-04T06:38:49;28.430000;;28.180000;26.080000;;;;;;
43196;SPS30;28816;49.852;18.282;2023-12-04T06:43:51;33.120000;;32.640000;30.620000;;;;;;
43196;SPS30;28816;49.852;18.282;2023-12-04T06:48:54;30.320000;;29.780000;27.820000;;;;;;
43196;SPS30;28816;49.852;18.282;2023-12-04T06:53:57;29.540000;;29.160000;26.930000;;;;;;
43196;SPS30;28816;49.852;18.282;2023-12-04T06:58:59;27.520000;;27.230000;25.590000;;;;;;
43196;SPS30;28816;49.852;18.282;2023-12-04T07:04:01;28.950000;;28.320000;26.460000;;;;;;
43196;SPS30;28816;49.852;18.282;2023-12-04T07:09:04;29.840000;;29.650000;27.350000;;;;;;
43196;SPS30;28816;49.852;18.282;2023-12-04T07:14:06;30.000000;;29.790000;27.630000;;;;;;
43196;SPS30;28816;49.852;18.282;2023-12-04T07:19:09;36.140000;;35.080000;32.430000;;;;;;
43196;SPS30;28816;49.852;18.282;2023-12-04T07:24:11;46.070000;;44.090000;39.930000;;;;;;
43196;SPS30;28816;49.852;18.282;2023-12-04T07:29:13;39.180000;;38.260000;35.260000;;;;;;
43196;SPS30;28816;49.852;18.282;2023-12-04T07:34:15;32.200000;;31.720000;29.460000;;;;;;
43196;SPS30;28816;49.852;18.282;2023-12-04T07:39:17;31.640000;;31.030000;28.780000;;;;;;
43196;SPS30;28816;49.852;18.282;2023-12-04T07:44:19;31.710000;;31.290000;29.060000;;;;;;
43196;SPS30;28816;49.852;18.282;2023-12-04T07:59:46;31.170000;;30.710000;28.530000;;;;;;
43196;SPS30;28816;49.852;18.282;2023-12-04T08:04:49;29.530000;;28.930000;26.650000;;;;;;
43196;SPS30;28816;49.852;18.282;2023-12-04T08:15:04;32.180000;;31.710000;29.480000;;;;;;
43196;SPS30;28816;49.852;18.282;2023-12-04T08:20:07;29.040000;;28.330000;26.320000;;;;;;
43196;SPS30;28816;49.852;18.282;2023-12-04T08:25:10;27.110000;;26.670000;24.860000;;;;;;
43196;SPS30;28816;49.852;18.282;2023-12-04T08:30:12;31.660000;;31.550000;29.620000;;;;;;
43196;SPS30;28816;49.852;18.282;2023-12-04T08:35:14;29.350000;;28.810000;27.170000;;;;;;
43196;SPS30;28816;49.852;18.282;2023-12-04T08:40:16;26.590000;;26.180000;24.490000;;;;;;
43196;SPS30;28816;49.852;18.282;2023-12-04T08:45:18;25.450000;;25.300000;23.780000;;;;;;
43196;SPS30;28816;49.852;18.282;2023-12-04T08:50:21;26.900000;;26.570000;25.010000;;;;;;
43196;SPS30;28816;49.852;18.282;2023-12-04T08:55:23;26.330000;;26.160000;24.330000;;;;;;
43196;SPS30;28816;49.852;18.282;2023-12-04T09:00:25;24.730000;;24.330000;23.010000;;;;;;
43196;SPS30;28816;49.852;18.282;2023-12-04T09:05:27;24.160000;;23.580000;21.780000;;;;;;
43196;SPS30;28816;49.852;18.282;2023-12-04T09:10:29;23.220000;;23.010000;21.620000;;;;;;
43196;SPS30;28816;49.852;18.282;2023-12-04T09:15:31;25.660000;;25.130000;23.130000;;;;;;
43196;SPS30;28816;49.852;18.282;2023-12-04T09:20:33;25.390000;;25.220000;23.700000;;;;;;
43196;SPS30;28816;49.852;18.282;2023-12-04T09:25:35;24.660000;;24.600000;22.570000;;;;;;
43196;SPS30;28816;49.852;18.282;2023-12-04T09:30:37;25.820000;;25.640000;23.900000;;;;;;
43196;SPS30;28816;49.852;18.282;2023-12-04T09:35:39;23.550000;;23.570000;22.100000;;;;;;
43196;SPS30;28816;49.852;18.282;2023-12-04T09:40:41;25.010000;;24.840000;23.310000;;;;;;
43196;SPS30;28816;49.852;18.282;2023-12-04T09:45:43;25.380000;;25.100000;23.680000;;;;;;
43196;SPS30;28816;49.852;18.282;2023-12-04T09:50:45;24.860000;;24.450000;23.170000;;;;;;
43196;SPS30;28816;49.852;18.282;2023-12-04T09:55:48;24.640000;;24.550000;22.910000;;;;;;
43196;SPS30;28816;49.852;18.282;2023-12-04T10:00:50;23.800000;;23.750000;22.100000;;;;;;
43196;SPS30;28816;49.852;18.282;2023-12-04T10:05:52;24.360000;;24.290000;22.810000;;;;;;
43196;SPS30;28816;49.852;18.282;2023-12-04T10:10:55;24.300000;;24.330000;22.900000;;;;;;
43196;SPS30;28816;49.852;18.282;2023-12-04T10:15:57;22.630000;;22.510000;21.340000;;;;;;
43196;SPS30;28816;49.852;18.282;2023-12-04T10:20:59;25.500000;;25.440000;24.100000;;;;;;
43196;SPS30;28816;49.852;18.282;2023-12-04T10:26:01;23.830000;;23.870000;22.510000;;;;;;
43196;SPS30;28816;49.852;18.282;2023-12-04T10:31:03;23.720000;;23.600000;22.070000;;;;;;
43196;SPS30;28816;49.852;18.282;2023-12-04T10:36:06;25.480000;;25.250000;23.530000;;;;;;
43196;SPS30;28816;49.852;18.282;2023-12-04T10:41:11;23.890000;;23.750000;22.250000;;;;;;
43196;SPS30;28816;49.852;18.282;2023-12-04T10:46:13;26.520000;;26.550000;24.690000;;;;;;
43196;SPS30;28816;49.852;18.282;2023-12-04T10:51:15;24.670000;;24.580000;23.290000;;;;;;
43196;SPS30;28816;49.852;18.282;2023-12-04T10:56:17;26.590000;;26.440000;24.720000;;;;;;
43196;SPS30;28816;49.852;18.282;2023-12-04T11:01:25;25.910000;;25.910000;24.350000;;;;;;
43196;SPS30;28816;49.852;18.282;2023-12-04T11:06:27;26.130000;;25.990000;24.440000;;;;;;
43196;SPS30;28816;49.852;18.282;2023-12-04T11:11:28;27.930000;;27.610000;25.760000;;;;;;
43196;SPS30;28816;49.852;18.282;2023-12-04T11:16:33;26.340000;;26.190000;24.550000;;;;;;
43196;SPS30;28816;49.852;18.282;2023-12-04T11:21:41;28.410000;;27.910000;26.280000;;;;;;
43196;SPS30;28816;49.852;18.282;2023-12-04T11:26:45;27.780000;;27.620000;25.780000;;;;;;
43196;SPS30;28816;49.852;18.282;2023-12-04T11:31:47;28.180000;;28.040000;26.420000;;;;;;
43196;SPS30;28816;49.852;18.282;2023-12-04T11:36:50;29.200000;;28.880000;26.990000;;;;;;
43196;SPS30;28816;49.852;18.282;2023-12-04T11:41:52;29.080000;;28.650000;27.320000;;;;;;
43196;SPS30;28816;49.852;18.282;2023-12-04T11:46:54;29.480000;;28.960000;27.290000;;;;;;
43196;SPS30;28816;49.852;18.282;2023-12-04T11:51:56;30.210000;;30.070000;28.250000;;;;;;
43196;SPS30;28816;49.852;18.282;2023-12-04T11:56:59;31.520000;;31.250000;29.230000;;;;;;
43196;SPS30;28816;49.852;18.282;2023-12-04T12:02:20;31.780000;;31.810000;29.930000;;;;;;
43196;SPS30;28816;49.852;18.282;2023-12-04T12:07:22;29.260000;;28.890000;26.810000;;;;;;
43196;SPS30;28816;49.852;18.282;2023-12-04T12:12:24;31.140000;;31.050000;29.220000;;;;;;
43196;SPS30;28816;49.852;18.282;2023-12-04T12:17:28;30.420000;;30.060000;27.970000;;;;;;
43196;SPS30;28816;49.852;18.282;2023-12-04T12:22:30;30.600000;;30.500000;28.380000;;;;;;
43196;SPS30;28816;49.852;18.282;2023-12-04T12:27:33;30.230000;;30.110000;28.190000;;;;;;
43196;SPS30;28816;49.852;18.282;2023-12-04T12:32:35;28.070000;;27.920000;26.280000;;;;;;
43196;SPS30;28816;49.852;18.282;2023-12-04T12:37:37;29.850000;;29.590000;28.060000;;;;;;
43196;SPS30;28816;49.852;18.282;2023-12-04T12:42:39;32.830000;;32.460000;30.250000;;;;;;
43196;SPS30;28816;49.852;18.282;2023-12-04T12:47:41;30.910000;;30.520000;28.370000;;;;;;
43196;SPS30;28816;49.852;18.282;2023-12-04T12:52:43;33.080000;;32.520000;30.550000;;;;;;
43196;SPS30;28816;49.852;18.282;2023-12-04T12:57:45;32.240000;;31.960000;29.850000;;;;;;
43196;SPS30;28816;49.852;18.282;2023-12-04T13:02:47;34.730000;;34.360000;32.020000;;;;;;
43196;SPS30;28816;49.852;18.282;2023-12-04T13:07:51;34.860000;;34.430000;32.200000;;;;;;
43196;SPS30;28816;49.852;18.282;2023-12-04T13:12:54;36.870000;;36.530000;34.240000;;;;;;
43196;SPS30;28816;49.852;18.282;2023-12-04T13:17:56;36.430000;;35.690000;33.460000;;;;;;
43196;SPS30;28816;49.852;18.282;2023-12-04T13:22:58;37.300000;;36.940000;34.370000;;;;;;
43196;SPS30;28816;49.852;18.282;2023-12-04T13:28:01;36.440000;;36.080000;33.340000;;;;;;
43196;SPS30;28816;49.852;18.282;2023-12-04T13:33:03;34.030000;;33.730000;31.660000;;;;;;
43196;SPS30;28816;49.852;18.282;2023-12-04T13:38:05;39.730000;;39.170000;36.450000;;;;;;
43196;SPS30;28816;49.852;18.282;2023-12-04T13:43:07;25.530000;;25.440000;24.030000;;;;;;
43196;SPS30;28816;49.852;18.282;2023-12-04T13:48:09;25.520000;;25.180000;23.820000;;;;;;
43196;SPS30;28816;49.852;18.282;2023-12-04T13:53:11;24.510000;;24.240000;22.690000;;;;;;
43196;SPS30;28816;49.852;18.282;2023-12-04T13:58:13;23.200000;;22.890000;21.430000;;;;;;
43196;SPS30;28816;49.852;18.282;2023-12-04T14:03:16;24.040000;;23.870000;22.150000;;;;;;
43196;SPS30;28816;49.852;18.282;2023-12-04T14:08:18;22.020000;;21.690000;20.310000;;;;;;
43196;SPS30;28816;49.852;18.282;2023-12-04T14:13:20;24.820000;;24.740000;23.300000;;;;;;
43196;SPS30;28816;49.852;18.282;2023-12-04T14:18:22;29.150000;;28.870000;26.920000;;;;;;
43196;SPS30;28816;49.852;18.282;2023-12-04T14:23:24;35.960000;;35.830000;33.530000;;;;;;
43196;SPS30;28816;49.852;18.282;2023-12-04T14:28:26;33.450000;;32.850000;30.470000;;;;;;
43196;SPS30;28816;49.852;18.282;2023-12-04T14:33:29;35.480000;;34.860000;31.930000;;;;;;
43196;SPS30;28816;49.852;18.282;2023-12-04T14:38:31;33.590000;;33.540000;31.400000;;;;;;
43196;SPS30;28816;49.852;18.282;2023-12-04T14:43:33;33.980000;;33.320000;31.150000;;;;;;
43196;SPS30;28816;49.852;18.282;2023-12-04T14:48:35;36.030000;;35.660000;33.530000;;;;;;
43196;SPS30;28816;49.852;18.282;2023-12-04T14:53:38;36.150000;;35.490000;33.090000;;;;;;
43196;SPS30;28816;49.852;18.282;2023-12-04T14:58:40;37.110000;;36.780000;34.610000;;;;;;
43196;SPS30;28816;49.852;18.282;2023-12-04T15:03:42;37.360000;;36.910000;34.530000;;;;;;
43196;SPS30;28816;49.852;18.282;2023-12-04T15:08:44;39.170000;;38.260000;35.800000;;;;;;
43196;SPS30;28816;49.852;18.282;2023-12-04T15:13:46;39.270000;;38.650000;36.130000;;;;;;
43196;SPS30;28816;49.852;18.282;2023-12-04T15:18:49;39.140000;;38.840000;36.590000;;;;;;
43196;SPS30;28816;49.852;18.282;2023-12-04T15:23:51;39.940000;;39.540000;37.180000;;;;;;
43196;SPS30;28816;49.852;18.282;2023-12-04T15:28:53;39.900000;;39.370000;36.720000;;;;;;
43196;SPS30;28816;49.852;18.282;2023-12-04T15:33:55;41.330000;;41.160000;38.420000;;;;;;
43196;SPS30;28816;49.852;18.282;2023-12-04T15:38:57;41.460000;;40.990000;38.200000;;;;;;
43196;SPS30;28816;49.852;18.282;2023-12-04T15:44:00;47.690000;;46.680000;43.400000;;;;;;
43196;SPS30;28816;49.852;18.282;2023-12-04T15:49:01;44.690000;;44.000000;40.770000;;;;;;
43196;SPS30;28816;49.852;18.282;2023-12-04T15:54:04;42.300000;;41.780000;39.100000;;;;;;
43196;SPS30;28816;49.852;18.282;2023-12-04T15:59:06;42.100000;;41.480000;38.870000;;;;;;
43196;SPS30;28816;49.852;18.282;2023-12-04T16:04:08;43.500000;;43.010000;39.600000;;;;;;
43196;SPS30;28816;49.852;18.282;2023-12-04T16:09:10;40.570000;;40.010000;37.180000;;;;;;
43196;SPS30;28816;49.852;18.282;2023-12-04T16:14:12;42.940000;;42.330000;39.470000;;;;;;
43196;SPS30;28816;49.852;18.282;2023-12-04T16:19:14;47.550000;;46.690000;43.340000;;;;;;
43196;SPS30;28816;49.852;18.282;2023-12-04T16:24:16;44.450000;;43.730000;40.570000;;;;;;
43196;SPS30;28816;49.852;18.282;2023-12-04T16:29:19;47.700000;;46.330000;42.390000;;;;;;
43196;SPS30;28816;49.852;18.282;2023-12-04T16:34:21;49.950000;;49.020000;45.870000;;;;;;
43196;SPS30;28816;49.852;18.282;2023-12-04T16:39:23;49.200000;;48.090000;43.940000;;;;;;
43196;SPS30;28816;49.852;18.282;2023-12-04T16:44:25;46.420000;;45.130000;41.470000;;;;;;
43196;SPS30;28816;49.852;18.282;2023-12-04T16:49:27;48.990000;;47.850000;43.550000;;;;;;
43196;SPS30;28816;49.852;18.282;2023-12-04T16:54:29;47.920000;;46.540000;42.630000;;;;;;
43196;SPS30;28816;49.852;18.282;2023-12-04T16:59:32;46.960000;;46.010000;42.670000;;;;;;
43196;SPS30;28816;49.852;18.282;2023-12-04T17:04:34;45.460000;;44.470000;41.100000;;;;;;
43196;SPS30;28816;49.852;18.282;2023-12-04T17:09:36;41.930000;;41.060000;37.960000;;;;;;
43196;SPS30;28816;49.852;18.282;2023-12-04T17:14:41;45.600000;;43.820000;39.940000;;;;;;
43196;SPS30;28816;49.852;18.282;2023-12-04T17:19:43;45.270000;;43.930000;41.160000;;;;;;
43196;SPS30;28816;49.852;18.282;2023-12-04T17:24:45;46.800000;;45.710000;42.090000;;;;;;
43196;SPS30;28816;49.852;18.282;2023-12-04T17:29:47;45.000000;;43.840000;40.410000;;;;;;
43196;SPS30;28816;49.852;18.282;2023-12-04T17:34:50;43.690000;;42.590000;39.120000;;;;;;
43196;SPS30;28816;49.852;18.282;2023-12-04T17:39:52;44.550000;;43.160000;39.850000;;;;;;
43196;SPS30;28816;49.852;18.282;2023-12-04T17:44:54;48.580000;;47.180000;43.570000;;;;;;
43196;SPS30;28816;49.852;18.282;2023-12-04T17:49:57;50.610000;;49.510000;45.500000;;;;;;
43196;SPS30;28816;49.852;18.282;2023-12-04T17:54:58;52.620000;;51.640000;47.910000;;;;;;
43196;SPS30;28816;49.852;18.282;2023-12-04T18:00:01;54.640000;;53.720000;50.030000;;;;;;
43196;SPS30;28816;49.852;18.282;2023-12-04T18:05:04;53.950000;;52.350000;47.650000;;;;;;
43196;SPS30;28816;49.852;18.282;2023-12-04T18:10:07;56.110000;;54.850000;50.590000;;;;;;
43196;SPS30;28816;49.852;18.282;2023-12-04T18:15:10;59.920000;;58.400000;54.180000;;;;;;
43196;SPS30;28816;49.852;18.282;2023-12-04T18:20:13;61.860000;;60.760000;56.510000;;;;;;
43196;SPS30;28816;49.852;18.282;2023-12-04T18:25:16;61.170000;;60.220000;55.560000;;;;;;
43196;SPS30;28816;49.852;18.282;2023-12-04T18:30:18;66.180000;;64.700000;59.750000;;;;;;
43196;SPS30;28816;49.852;18.282;2023-12-04T18:35:20;66.900000;;64.980000;59.750000;;;;;;
43196;SPS30;28816;49.852;18.282;2023-12-04T18:40:22;68.440000;;67.620000;62.300000;;;;;;
43196;SPS30;28816;49.852;18.282;2023-12-04T18:45:26;68.620000;;67.380000;63.090000;;;;;;
43196;SPS30;28816;49.852;18.282;2023-12-04T18:50:29;71.220000;;69.330000;63.410000;;;;;;
43196;SPS30;28816;49.852;18.282;2023-12-04T18:55:32;71.410000;;69.840000;64.330000;;;;;;
43196;SPS30;28816;49.852;18.282;2023-12-04T19:00:35;68.870000;;67.460000;62.380000;;;;;;
43196;SPS30;28816;49.852;18.282;2023-12-04T19:05:37;65.380000;;63.920000;58.960000;;;;;;
43196;SPS30;28816;49.852;18.282;2023-12-04T19:10:39;65.130000;;64.020000;59.490000;;;;;;
43196;SPS30;28816;49.852;18.282;2023-12-04T19:15:41;68.370000;;67.190000;62.230000;;;;;;
43196;SPS30;28816;49.852;18.282;2023-12-04T19:20:43;69.950000;;68.520000;63.620000;;;;;;
43196;SPS30;28816;49.852;18.282;2023-12-04T19:25:45;69.340000;;68.120000;63.150000;;;;;;
43196;SPS30;28816;49.852;18.282;2023-12-04T19:30:48;72.400000;;71.030000;66.360000;;;;;;
43196;SPS30;28816;49.852;18.282;2023-12-04T19:35:50;71.330000;;69.180000;63.030000;;;;;;
43196;SPS30;28816;49.852;18.282;2023-12-04T19:40:52;65.730000;;64.710000;59.950000;;;;;;
43196;SPS30;28816;49.852;18.282;2023-12-04T19:45:54;61.820000;;60.230000;55.580000;;;;;;
43196;SPS30;28816;49.852;18.282;2023-12-04T19:50:56;68.580000;;67.280000;62.070000;;;;;;
43196;SPS30;28816;49.852;18.282;2023-12-04T19:55:58;52.920000;;51.610000;47.650000;;;;;;
43196;SPS30;28816;49.852;18.282;2023-12-04T20:01:00;59.590000;;57.990000;53.580000;;;;;;
43196;SPS30;28816;49.852;18.282;2023-12-04T20:06:03;54.280000;;53.240000;49.620000;;;;;;
43196;SPS30;28816;49.852;18.282;2023-12-04T20:11:05;53.750000;;52.300000;48.690000;;;;;;
43196;SPS30;28816;49.852;18.282;2023-12-04T20:16:08;53.450000;;52.680000;48.740000;;;;;;
43196;SPS30;28816;49.852;18.282;2023-12-04T20:21:10;53.130000;;51.670000;47.440000;;;;;;
43196;SPS30;28816;49.852;18.282;2023-12-04T20:26:12;60.550000;;58.480000;53.000000;;;;;;
43196;SPS30;28816;49.852;18.282;2023-12-04T20:31:14;62.390000;;60.580000;55.060000;;;;;;
43196;SPS30;28816;49.852;18.282;2023-12-04T20:36:17;77.350000;;74.040000;66.580000;;;;;;
43196;SPS30;28816;49.852;18.282;2023-12-04T20:41:19;63.450000;;61.730000;56.890000;;;;;;
43196;SPS30;28816;49.852;18.282;2023-12-04T20:46:21;64.370000;;62.130000;56.980000;;;;;;
43196;SPS30;28816;49.852;18.282;2023-12-04T20:51:23;65.870000;;64.000000;58.900000;;;;;;
43196;SPS30;28816;49.852;18.282;2023-12-04T20:56:26;68.430000;;66.980000;61.580000;;;;;;
43196;SPS30;28816;49.852;18.282;2023-12-04T21:01:28;65.870000;;64.470000;59.500000;;;;;;
43196;SPS30;28816;49.852;18.282;2023-12-04T21:06:30;63.190000;;61.340000;55.960000;;;;;;
43196;SPS30;28816;49.852;18.282;2023-12-04T21:11:32;61.450000;;59.600000;54.260000;;;;;;
43196;SPS30;28816;49.852;18.282;2023-12-04T21:16:35;58.830000;;57.080000;52.490000;;;;;;
43196;SPS30;28816;49.852;18.282;2023-12-04T21:21:37;60.000000;;57.730000;52.380000;;;;;;
43196;SPS30;28816;49.852;18.282;2023-12-04T21:26:40;56.210000;;54.800000;50.440000;;;;;;
43196;SPS30;28816;49.852;18.282;2023-12-04T21:31:42;57.450000;;55.950000;51.480000;;;;;;
43196;SPS30;28816;49.852;18.282;2023-12-04T21:36:44;57.860000;;56.330000;51.720000;;;;;;
43196;SPS30;28816;49.852;18.282;2023-12-04T21:41:46;55.410000;;54.220000;50.070000;;;;;;
43196;SPS30;28816;49.852;18.282;2023-12-04T21:46:48;53.880000;;53.090000;49.070000;;;;;;
43196;SPS30;28816;49.852;18.282;2023-12-04T21:51:50;55.750000;;54.150000;49.600000;;;;;;
43196;SPS30;28816;49.852;18.282;2023-12-04T21:56:52;55.640000;;53.800000;48.910000;;;;;;
43196;SPS30;28816;49.852;18.282;2023-12-04T22:01:55;53.500000;;52.590000;48.910000;;;;;;
43196;SPS30;28816;49.852;18.282;2023-12-04T22:06:57;51.790000;;50.000000;45.840000;;;;;;
43196;SPS30;28816;49.852;18.282;2023-12-04T22:11:59;52.260000;;51.010000;46.960000;;;;;;
43196;SPS30;28816;49.852;18.282;2023-12-04T22:17:01;51.860000;;50.410000;45.950000;;;;;;
43196;SPS30;28816;49.852;18.282;2023-12-04T22:22:04;55.290000;;53.180000;48.320000;;;;;;
43196;SPS30;28816;49.852;18.282;2023-12-04T22:27:06;59.640000;;57.380000;52.120000;;;;;;
43196;SPS30;28816;49.852;18.282;2023-12-04T22:32:08;62.740000;;60.290000;54.380000;;;;;;
43196;SPS30;28816;49.852;18.282;2023-12-04T22:37:10;71.700000;;69.350000;63.210000;;;;;;
43196;SPS30;28816;49.852;18.282;2023-12-04T22:42:12;66.530000;;64.390000;59.250000;;;;;;